sensor_id;sensor_type;location;lat;lon;timestamp;pressure;altitude;pressure_sealevel;temperature;humidity
52441;BME280;39611;46.062;8.950;2023-03-19T00:00:35;96651.28;;;8.02;63.19
52441;BME280;39611;46.062;8.950;2023-03-19T00:03:01;96659.75;;;8.09;62.73
52441;BME280;39611;46.062;8.950;2023-03-19T00:05:28;96657.75;;;8.21;62.51
52441;BME280;39611;46.062;8.950;2023-03-19T00:07:54;96664.56;;;8.12;63.46
52441;BME280;39611;46.062;8.950;2023-03-19T00:10:22;96665.97;;;7.93;64.70
52441;BME280;39611;46.062;8.950;2023-03-19T00:12:48;96660.88;;;7.81;64.80
52441;BME280;39611;46.062;8.950;2023-03-19T00:15:14;96657.91;;;8.04;63.16
52441;BME280;39611;46.062;8.950;2023-03-19T00:17:41;96650.53;;;8.06;63.56
52441;BME280;39611;46.062;8.950;2023-03-19T00:20:10;96661.28;;;8.00;62.00
52441;BME280;39611;46.062;8.950;2023-03-19T00:22:37;96660.63;;;8.15;61.21
52441;BME280;39611;46.062;8.950;2023-03-19T00:25:06;96657.16;;;8.14;62.34
52441;BME280;39611;46.062;8.950;2023-03-19T00:27:33;96665.78;;;7.99;63.55
52441;BME280;39611;46.062;8.950;2023-03-19T00:30:00;96656.22;;;7.93;63.92
52441;BME280;39611;46.062;8.950;2023-03-19T00:32:27;96669.56;;;7.81;64.13
52441;BME280;39611;46.062;8.950;2023-03-19T00:34:54;96666.75;;;7.93;64.05
52441;BME280;39611;46.062;8.950;2023-03-19T00:37:20;96668.81;;;7.86;64.95
52441;BME280;39611;46.062;8.950;2023-03-19T00:39:47;96668.91;;;8.01;63.99
52441;BME280;39611;46.062;8.950;2023-03-19T00:42:13;96658.75;;;7.83;65.71
52441;BME280;39611;46.062;8.950;2023-03-19T00:44:39;96659.41;;;7.95;64.59
52441;BME280;39611;46.062;8.950;2023-03-19T00:47:06;96660.91;;;8.18;62.15
52441;BME280;39611;46.062;8.950;2023-03-19T00:49:33;96656.88;;;8.10;62.60
52441;BME280;39611;46.062;8.950;2023-03-19T00:51:59;96650.47;;;8.01;64.00
52441;BME280;39611;46.062;8.950;2023-03-19T00:54:26;96651.63;;;8.10;63.91
52441;BME280;39611;46.062;8.950;2023-03-19T00:56:52;96658.75;;;7.83;65.98
52441;BME280;39611;46.062;8.950;2023-03-19T00:59:19;96655.06;;;7.79;66.39
52441;BME280;39611;46.062;8.950;2023-03-19T01:01:45;96658.97;;;7.76;66.18
52441;BME280;39611;46.062;8.950;2023-03-19T01:04:12;96658.66;;;7.73;65.37
52441;BME280;39611;46.062;8.950;2023-03-19T01:06:40;96663.88;;;7.68;65.41
52441;BME280;39611;46.062;8.950;2023-03-19T01:09:07;96667.56;;;7.66;64.91
52441;BME280;39611;46.062;8.950;2023-03-19T01:11:33;96672.44;;;7.80;65.22
52441;BME280;39611;46.062;8.950;2023-03-19T01:14:00;96658.25;;;7.81;64.83
52441;BME280;39611;46.062;8.950;2023-03-19T01:16:27;96653.03;;;7.91;64.37
52441;BME280;39611;46.062;8.950;2023-03-19T01:18:54;96659.63;;;7.94;64.27
52441;BME280;39611;46.062;8.950;2023-03-19T01:21:20;96654.03;;;7.85;66.19
52441;BME280;39611;46.062;8.950;2023-03-19T01:23:47;96651.28;;;7.70;67.27
52441;BME280;39611;46.062;8.950;2023-03-19T01:26:14;96651.00;;;7.66;66.83
52441;BME280;39611;46.062;8.950;2023-03-19T01:28:40;96643.97;;;7.77;65.18
52441;BME280;39611;46.062;8.950;2023-03-19T01:31:08;96642.72;;;7.84;65.17
52441;BME280;39611;46.062;8.950;2023-03-19T01:33:35;96643.22;;;7.81;65.94
52441;BME280;39611;46.062;8.950;2023-03-19T01:36:04;96639.25;;;7.79;66.71
52441;BME280;39611;46.062;8.950;2023-03-19T01:38:31;96626.59;;;7.76;66.89
52441;BME280;39611;46.062;8.950;2023-03-19T01:40:58;96628.72;;;7.79;66.61
52441;BME280;39611;46.062;8.950;2023-03-19T01:43:27;96629.09;;;7.60;68.27
52441;BME280;39611;46.062;8.950;2023-03-19T01:48:38;96627.84;;;7.68;66.47
52441;BME280;39611;46.062;8.950;2023-03-19T01:51:08;96627.28;;;7.66;68.52
52441;BME280;39611;46.062;8.950;2023-03-19T01:53:36;96623.19;;;7.48;69.61
52441;BME280;39611;46.062;8.950;2023-03-19T01:56:25;96612.66;;;7.48;68.48
52441;BME280;39611;46.062;8.950;2023-03-19T01:58:56;96609.66;;;7.66;67.72
52441;BME280;39611;46.062;8.950;2023-03-19T02:01:24;96609.59;;;7.61;68.32
52441;BME280;39611;46.062;8.950;2023-03-19T02:03:53;96613.63;;;7.69;66.95
52441;BME280;39611;46.062;8.950;2023-03-19T02:06:19;96613.44;;;7.76;68.36
52441;BME280;39611;46.062;8.950;2023-03-19T02:08:47;96604.81;;;7.53;70.19
52441;BME280;39611;46.062;8.950;2023-03-19T02:11:14;96605.91;;;7.62;68.04
52441;BME280;39611;46.062;8.950;2023-03-19T02:13:42;96601.78;;;7.72;68.17
52441;BME280;39611;46.062;8.950;2023-03-19T02:16:08;96602.91;;;7.76;68.20
52441;BME280;39611;46.062;8.950;2023-03-19T02:18:35;96600.50;;;7.74;67.70
52441;BME280;39611;46.062;8.950;2023-03-19T02:23:42;96599.47;;;7.80;68.13
52441;BME280;39611;46.062;8.950;2023-03-19T02:26:21;96604.53;;;7.55;69.95
52441;BME280;39611;46.062;8.950;2023-03-19T02:28:49;96605.00;;;7.47;69.93
52441;BME280;39611;46.062;8.950;2023-03-19T02:31:17;96604.19;;;7.46;69.08
52441;BME280;39611;46.062;8.950;2023-03-19T02:33:44;96595.34;;;7.57;68.33
52441;BME280;39611;46.062;8.950;2023-03-19T02:36:15;96593.25;;;7.59;67.69
52441;BME280;39611;46.062;8.950;2023-03-19T02:38:45;96592.91;;;7.83;66.57
52441;BME280;39611;46.062;8.950;2023-03-19T02:41:12;96600.75;;;7.73;68.50
52441;BME280;39611;46.062;8.950;2023-03-19T02:43:39;96591.78;;;7.69;69.30
52441;BME280;39611;46.062;8.950;2023-03-19T02:46:09;96593.47;;;7.53;70.97
52441;BME280;39611;46.062;8.950;2023-03-19T02:48:37;96597.59;;;7.43;70.67
52441;BME280;39611;46.062;8.950;2023-03-19T02:51:04;96600.19;;;7.38;70.56
52441;BME280;39611;46.062;8.950;2023-03-19T02:53:31;96602.31;;;7.41;71.06
52441;BME280;39611;46.062;8.950;2023-03-19T02:56:00;96604.75;;;7.48;71.18
52441;BME280;39611;46.062;8.950;2023-03-19T02:58:26;96600.03;;;7.50;68.96
52441;BME280;39611;46.062;8.950;2023-03-19T03:00:53;96610.66;;;7.60;69.47
52441;BME280;39611;46.062;8.950;2023-03-19T03:03:19;96601.47;;;7.36;71.92
52441;BME280;39611;46.062;8.950;2023-03-19T03:05:46;96599.50;;;7.48;70.01
52441;BME280;39611;46.062;8.950;2023-03-19T03:08:12;96592.66;;;7.52;69.03
52441;BME280;39611;46.062;8.950;2023-03-19T03:10:39;96601.00;;;7.71;68.15
52441;BME280;39611;46.062;8.950;2023-03-19T03:13:05;96598.84;;;7.63;70.12
52441;BME280;39611;46.062;8.950;2023-03-19T03:15:32;96599.50;;;7.48;71.03
52441;BME280;39611;46.062;8.950;2023-03-19T03:17:59;96603.69;;;7.49;71.43
52441;BME280;39611;46.062;8.950;2023-03-19T03:20:26;96602.22;;;7.58;70.45
52441;BME280;39611;46.062;8.950;2023-03-19T03:22:52;96602.25;;;7.63;69.92
52441;BME280;39611;46.062;8.950;2023-03-19T03:25:19;96608.34;;;7.69;69.76
52441;BME280;39611;46.062;8.950;2023-03-19T03:27:46;96598.53;;;7.59;70.79
52441;BME280;39611;46.062;8.950;2023-03-19T03:30:13;96602.22;;;7.58;69.40
52441;BME280;39611;46.062;8.950;2023-03-19T03:32:41;96604.34;;;7.61;67.89
52441;BME280;39611;46.062;8.950;2023-03-19T03:35:08;96620.28;;;7.77;68.10
52441;BME280;39611;46.062;8.950;2023-03-19T03:37:35;96610.63;;;7.55;71.82
52441;BME280;39611;46.062;8.950;2023-03-19T03:40:02;96611.88;;;7.48;71.99
52441;BME280;39611;46.062;8.950;2023-03-19T03:42:34;96604.28;;;7.56;71.37
52441;BME280;39611;46.062;8.950;2023-03-19T03:45:02;96598.03;;;7.62;71.44
52441;BME280;39611;46.062;8.950;2023-03-19T03:47:28;96604.28;;;7.56;71.61
52441;BME280;39611;46.062;8.950;2023-03-19T03:49:55;96608.00;;;7.55;71.34
52441;BME280;39611;46.062;8.950;2023-03-19T03:52:22;96606.09;;;7.51;70.85
52441;BME280;39611;46.062;8.950;2023-03-19T03:54:49;96609.06;;;7.59;70.14
52441;BME280;39611;46.062;8.950;2023-03-19T03:57:15;96617.56;;;7.66;69.54
52441;BME280;39611;46.062;8.950;2023-03-19T03:59:42;96615.00;;;7.77;69.55
52441;BME280;39611;46.062;8.950;2023-03-19T04:02:08;96607.16;;;7.82;69.96
52441;BME280;39611;46.062;8.950;2023-03-19T04:04:35;96616.59;;;7.78;70.97
52441;BME280;39611;46.062;8.950;2023-03-19T04:07:01;96619.16;;;7.73;71.11
52441;BME280;39611;46.062;8.950;2023-03-19T04:09:28;96622.88;;;7.72;70.58
52441;BME280;39611;46.062;8.950;2023-03-19T04:11:54;96623.38;;;7.69;70.89
52441;BME280;39611;46.062;8.950;2023-03-19T04:14:20;96611.97;;;7.58;72.46
52441;BME280;39611;46.062;8.950;2023-03-19T04:16:47;96619.59;;;7.59;72.61
52441;BME280;39611;46.062;8.950;2023-03-19T04:19:14;96616.22;;;7.64;72.12
52441;BME280;39611;46.062;8.950;2023-03-19T04:21:40;96620.66;;;7.58;71.19
52441;BME280;39611;46.062;8.950;2023-03-19T04:24:07;96617.50;;;7.61;69.91
52441;BME280;39611;46.062;8.950;2023-03-19T04:26:36;96609.69;;;7.72;67.80
52441;BME280;39611;46.062;8.950;2023-03-19T04:29:03;96625.97;;;7.63;67.58
52441;BME280;39611;46.062;8.950;2023-03-19T04:31:29;96615.50;;;7.74;67.25
52441;BME280;39611;46.062;8.950;2023-03-19T04:33:56;96613.47;;;7.81;69.08
52441;BME280;39611;46.062;8.950;2023-03-19T04:36:22;96621.19;;;7.60;72.22
52441;BME280;39611;46.062;8.950;2023-03-19T04:38:49;96627.19;;;7.56;72.74
52441;BME280;39611;46.062;8.950;2023-03-19T04:41:15;96632.75;;;7.59;72.25
52441;BME280;39611;46.062;8.950;2023-03-19T04:43:42;96627.94;;;7.51;73.89
52441;BME280;39611;46.062;8.950;2023-03-19T04:46:08;96622.38;;;7.48;74.26
52441;BME280;39611;46.062;8.950;2023-03-19T04:48:35;96611.88;;;7.48;74.33
52441;BME280;39611;46.062;8.950;2023-03-19T04:51:03;96612.53;;;7.65;71.97
52441;BME280;39611;46.062;8.950;2023-03-19T04:53:30;96606.28;;;7.71;71.73
52441;BME280;39611;46.062;8.950;2023-03-19T04:55:58;96615.72;;;7.67;71.62
52441;BME280;39611;46.062;8.950;2023-03-19T04:58:24;96624.44;;;7.73;71.79
52441;BME280;39611;46.062;8.950;2023-03-19T05:00:51;96627.75;;;7.58;73.30
52441;BME280;39611;46.062;8.950;2023-03-19T05:03:18;96629.03;;;7.55;73.32
52441;BME280;39611;46.062;8.950;2023-03-19T05:05:44;96625.34;;;7.56;73.17
52441;BME280;39611;46.062;8.950;2023-03-19T05:08:11;96624.75;;;7.49;73.70
52441;BME280;39611;46.062;8.950;2023-03-19T05:10:39;96624.72;;;7.44;73.70
52441;BME280;39611;46.062;8.950;2023-03-19T05:13:06;96624.25;;;7.52;73.15
52441;BME280;39611;46.062;8.950;2023-03-19T05:15:32;96614.22;;;7.49;73.42
52441;BME280;39611;46.062;8.950;2023-03-19T05:17:59;96614.19;;;7.44;74.22
52441;BME280;39611;46.062;8.950;2023-03-19T05:20:26;96617.75;;;7.33;74.63
52441;BME280;39611;46.062;8.950;2023-03-19T05:22:52;96622.47;;;7.31;73.76
52441;BME280;39611;46.062;8.950;2023-03-19T05:25:19;96621.56;;;7.42;72.37
52441;BME280;39611;46.062;8.950;2023-03-19T05:27:45;96622.06;;;7.44;71.78
52441;BME280;39611;46.062;8.950;2023-03-19T05:30:12;96632.91;;;7.48;72.17
52441;BME280;39611;46.062;8.950;2023-03-19T05:32:38;96635.78;;;7.46;72.65
52441;BME280;39611;46.062;8.950;2023-03-19T05:35:06;96635.50;;;7.42;73.29
52441;BME280;39611;46.062;8.950;2023-03-19T05:37:32;96647.22;;;7.30;74.50
52441;BME280;39611;46.062;8.950;2023-03-19T05:39:59;96645.03;;;7.21;75.01
52441;BME280;39611;46.062;8.950;2023-03-19T05:42:25;96647.72;;;7.27;74.84
52441;BME280;39611;46.062;8.950;2023-03-19T05:44:52;96637.81;;;7.12;75.75
52441;BME280;39611;46.062;8.950;2023-03-19T05:47:18;96648.34;;;7.12;75.30
52441;BME280;39611;46.062;8.950;2023-03-19T05:49:45;96647.28;;;7.13;74.94
52441;BME280;39611;46.062;8.950;2023-03-19T05:52:11;96655.44;;;7.11;74.87
52441;BME280;39611;46.062;8.950;2023-03-19T05:54:38;96651.25;;;7.15;74.00
52441;BME280;39611;46.062;8.950;2023-03-19T05:57:04;96646.88;;;7.26;73.96
52441;BME280;39611;46.062;8.950;2023-03-19T05:59:31;96656.19;;;7.34;73.54
52441;BME280;39611;46.062;8.950;2023-03-19T06:01:57;96657.13;;;7.44;73.19
52441;BME280;39611;46.062;8.950;2023-03-19T06:04:24;96660.03;;;7.48;72.36
52441;BME280;39611;46.062;8.950;2023-03-19T06:06:51;96661.31;;;7.46;72.13
52441;BME280;39611;46.062;8.950;2023-03-19T06:09:17;96666.53;;;7.40;72.30
52441;BME280;39611;46.062;8.950;2023-03-19T06:11:44;96673.63;;;7.40;73.21
52441;BME280;39611;46.062;8.950;2023-03-19T06:14:10;96677.50;;;7.32;75.29
52441;BME280;39611;46.062;8.950;2023-03-19T06:16:37;96668.75;;;7.27;75.82
52441;BME280;39611;46.062;8.950;2023-03-19T06:19:03;96676.38;;;7.28;75.57
52441;BME280;39611;46.062;8.950;2023-03-19T06:21:30;96664.56;;;7.31;75.28
52441;BME280;39611;46.062;8.950;2023-03-19T06:23:56;96676.16;;;7.30;75.33
52441;BME280;39611;46.062;8.950;2023-03-19T06:26:23;96681.81;;;7.43;74.29
52441;BME280;39611;46.062;8.950;2023-03-19T06:28:50;96680.97;;;7.38;73.44
52441;BME280;39611;46.062;8.950;2023-03-19T06:31:16;96686.78;;;7.40;73.36
52441;BME280;39611;46.062;8.950;2023-03-19T06:33:43;96682.38;;;7.46;72.95
52441;BME280;39611;46.062;8.950;2023-03-19T06:36:10;96694.19;;;7.43;75.58
52441;BME280;39611;46.062;8.950;2023-03-19T06:38:36;96687.34;;;7.42;75.96
52441;BME280;39611;46.062;8.950;2023-03-19T06:41:03;96687.81;;;7.39;76.15
52441;BME280;39611;46.062;8.950;2023-03-19T06:43:29;96694.47;;;7.47;75.15
52441;BME280;39611;46.062;8.950;2023-03-19T06:45:57;96692.22;;;7.55;75.19
52441;BME280;39611;46.062;8.950;2023-03-19T06:48:23;96690.31;;;7.51;75.77
52441;BME280;39611;46.062;8.950;2023-03-19T06:50:50;96695.78;;;7.44;76.29
52441;BME280;39611;46.062;8.950;2023-03-19T06:53:16;96692.50;;;7.32;76.56
52441;BME280;39611;46.062;8.950;2023-03-19T06:55:44;96709.56;;;7.29;75.75
52441;BME280;39611;46.062;8.950;2023-03-19T06:58:11;96696.94;;;7.31;75.75
52441;BME280;39611;46.062;8.950;2023-03-19T07:00:37;96699.97;;;7.40;76.11
52441;BME280;39611;46.062;8.950;2023-03-19T07:03:04;96692.63;;;7.42;77.13
52441;BME280;39611;46.062;8.950;2023-03-19T07:05:30;96690.91;;;7.85;74.88
52441;BME280;39611;46.062;8.950;2023-03-19T07:07:57;96687.69;;;8.80;69.05
52441;BME280;39611;46.062;8.950;2023-03-19T07:10:23;96686.03;;;9.21;65.32
52441;BME280;39611;46.062;8.950;2023-03-19T07:12:50;96691.22;;;9.99;61.80
52441;BME280;39611;46.062;8.950;2023-03-19T07:15:16;96701.28;;;10.48;59.39
52441;BME280;39611;46.062;8.950;2023-03-19T07:17:45;96706.75;;;10.98;56.29
52441;BME280;39611;46.062;8.950;2023-03-19T07:20:12;96703.66;;;11.41;54.58
52441;BME280;39611;46.062;8.950;2023-03-19T07:22:39;96696.94;;;11.64;54.20
52441;BME280;39611;46.062;8.950;2023-03-19T07:25:06;96699.56;;;11.64;54.84
52441;BME280;39611;46.062;8.950;2023-03-19T07:27:33;96709.97;;;11.55;55.00
52441;BME280;39611;46.062;8.950;2023-03-19T07:29:59;96706.28;;;11.46;55.11
52441;BME280;39611;46.062;8.950;2023-03-19T07:32:26;96706.06;;;11.42;55.23
52441;BME280;39611;46.062;8.950;2023-03-19T07:34:52;96708.56;;;11.08;55.45
52441;BME280;39611;46.062;8.950;2023-03-19T07:37:18;96708.38;;;10.79;55.88
52441;BME280;39611;46.062;8.950;2023-03-19T07:39:47;96711.59;;;10.30;56.73
52441;BME280;39611;46.062;8.950;2023-03-19T07:42:14;96713.97;;;10.41;57.41
52441;BME280;39611;46.062;8.950;2023-03-19T07:44:40;96716.38;;;10.33;57.22
52441;BME280;39611;46.062;8.950;2023-03-19T07:47:07;96715.25;;;10.08;57.65
52441;BME280;39611;46.062;8.950;2023-03-19T07:49:53;96721.88;;;10.05;58.04
52441;BME280;39611;46.062;8.950;2023-03-19T07:52:19;96722.66;;;9.96;57.76
52441;BME280;39611;46.062;8.950;2023-03-19T07:54:46;96722.16;;;9.99;57.56
52441;BME280;39611;46.062;8.950;2023-03-19T07:57:13;96721.09;;;10.05;58.19
52441;BME280;39611;46.062;8.950;2023-03-19T07:59:41;96729.53;;;9.97;58.24
52441;BME280;39611;46.062;8.950;2023-03-19T08:02:11;96731.09;;;9.93;57.18
52441;BME280;39611;46.062;8.950;2023-03-19T08:04:39;96724.78;;;9.94;57.60
52441;BME280;39611;46.062;8.950;2023-03-19T08:07:06;96720.03;;;10.21;56.65
52441;BME280;39611;46.062;8.950;2023-03-19T08:09:35;96715.53;;;10.06;55.51
52441;BME280;39611;46.062;8.950;2023-03-19T08:12:03;96721.88;;;10.05;55.74
52441;BME280;39611;46.062;8.950;2023-03-19T08:14:30;96718.16;;;10.12;56.37
52441;BME280;39611;46.062;8.950;2023-03-19T08:16:56;96713.69;;;10.22;57.29
52441;BME280;39611;46.062;8.950;2023-03-19T08:19:23;96715.84;;;10.31;57.70
52441;BME280;39611;46.062;8.950;2023-03-19T08:21:49;96715.53;;;10.27;56.63
52441;BME280;39611;46.062;8.950;2023-03-19T08:24:16;96723.78;;;10.41;55.86
52441;BME280;39611;46.062;8.950;2023-03-19T08:26:44;96719.50;;;10.55;56.24
52441;BME280;39611;46.062;8.950;2023-03-19T08:29:11;96717.16;;;10.64;55.98
52441;BME280;39611;46.062;8.950;2023-03-19T08:31:38;96725.84;;;10.75;57.24
52441;BME280;39611;46.062;8.950;2023-03-19T08:34:04;96717.63;;;10.81;56.01
52441;BME280;39611;46.062;8.950;2023-03-19T08:36:31;96716.81;;;10.91;56.26
52441;BME280;39611;46.062;8.950;2023-03-19T08:38:57;96723.16;;;10.95;56.60
52441;BME280;39611;46.062;8.950;2023-03-19T08:41:24;96724.19;;;10.99;55.63
52441;BME280;39611;46.062;8.950;2023-03-19T08:43:51;96729.75;;;11.03;54.85
52441;BME280;39611;46.062;8.950;2023-03-19T08:46:18;96729.47;;;11.09;56.04
52441;BME280;39611;46.062;8.950;2023-03-19T08:48:44;96733.97;;;11.09;54.69
52441;BME280;39611;46.062;8.950;2023-03-19T08:51:11;96725.78;;;11.10;54.57
52441;BME280;39611;46.062;8.950;2023-03-19T08:53:38;96733.63;;;11.26;56.01
52441;BME280;39611;46.062;8.950;2023-03-19T08:56:05;96726.75;;;11.30;54.98
52441;BME280;39611;46.062;8.950;2023-03-19T08:58:35;96734.16;;;11.33;54.78
52441;BME280;39611;46.062;8.950;2023-03-19T09:01:03;96729.94;;;11.27;54.75
52441;BME280;39611;46.062;8.950;2023-03-19T09:03:30;96729.91;;;11.37;54.62
52441;BME280;39611;46.062;8.950;2023-03-19T09:06:01;96731.75;;;11.42;54.37
52441;BME280;39611;46.062;8.950;2023-03-19T09:08:28;96739.91;;;11.50;54.76
52441;BME280;39611;46.062;8.950;2023-03-19T09:10:56;96738.78;;;11.62;54.99
52441;BME280;39611;46.062;8.950;2023-03-19T09:13:23;96739.84;;;11.66;54.93
52441;BME280;39611;46.062;8.950;2023-03-19T09:15:50;96737.72;;;11.68;54.63
52441;BME280;39611;46.062;8.950;2023-03-19T09:18:18;96736.09;;;11.72;54.60
52441;BME280;39611;46.062;8.950;2023-03-19T09:20:46;96742.72;;;11.74;54.49
52441;BME280;39611;46.062;8.950;2023-03-19T09:23:13;96733.69;;;11.80;55.18
52441;BME280;39611;46.062;8.950;2023-03-19T09:25:39;96726.22;;;11.82;54.34
52441;BME280;39611;46.062;8.950;2023-03-19T09:28:06;96720.66;;;11.89;53.28
52441;BME280;39611;46.062;8.950;2023-03-19T09:30:33;96728.34;;;11.91;52.67
52441;BME280;39611;46.062;8.950;2023-03-19T09:32:59;96727.00;;;11.93;50.43
52441;BME280;39611;46.062;8.950;2023-03-19T09:35:27;96725.41;;;11.92;51.04
52441;BME280;39611;46.062;8.950;2023-03-19T09:37:57;96733.34;;;11.97;52.68
52441;BME280;39611;46.062;8.950;2023-03-19T09:40:27;96731.72;;;12.01;51.51
52441;BME280;39611;46.062;8.950;2023-03-19T09:43:23;96720.03;;;12.02;53.59
52441;BME280;39611;46.062;8.950;2023-03-19T09:45:56;96725.34;;;12.02;52.17
52441;BME280;39611;46.062;8.950;2023-03-19T09:48:34;96727.72;;;12.04;51.94
52441;BME280;39611;46.062;8.950;2023-03-19T09:51:07;96720.53;;;12.10;54.06
52441;BME280;39611;46.062;8.950;2023-03-19T09:53:52;96718.38;;;12.17;51.52
52441;BME280;39611;46.062;8.950;2023-03-19T09:56:23;96720.47;;;12.20;52.81
52441;BME280;39611;46.062;8.950;2023-03-19T09:58:49;96716.16;;;12.24;52.10
52441;BME280;39611;46.062;8.950;2023-03-19T10:01:29;96717.78;;;12.25;50.98
52441;BME280;39611;46.062;8.950;2023-03-19T10:04:28;96716.66;;;12.31;49.36
52441;BME280;39611;46.062;8.950;2023-03-19T10:12:45;96720.66;;;12.29;49.88
52441;BME280;39611;46.062;8.950;2023-03-19T10:15:17;96721.41;;;12.34;48.20
52441;BME280;39611;46.062;8.950;2023-03-19T10:17:56;96729.66;;;12.33;48.69
52441;BME280;39611;46.062;8.950;2023-03-19T10:23:47;96721.53;;;12.53;48.53
52441;BME280;39611;46.062;8.950;2023-03-19T10:26:18;96726.50;;;12.60;48.18
52441;BME280;39611;46.062;8.950;2023-03-19T10:28:54;96726.91;;;12.72;48.20
52441;BME280;39611;46.062;8.950;2023-03-19T10:37:02;96713.13;;;12.70;48.64
52441;BME280;39611;46.062;8.950;2023-03-19T10:39:32;96713.97;;;12.65;47.25
52441;BME280;39611;46.062;8.950;2023-03-19T10:44:56;96705.13;;;12.75;47.05
52441;BME280;39611;46.062;8.950;2023-03-19T10:47:25;96712.59;;;12.68;46.83
52441;BME280;39611;46.062;8.950;2023-03-19T10:49:54;96703.13;;;12.62;45.77
52441;BME280;39611;46.062;8.950;2023-03-19T10:52:26;96708.16;;;12.63;46.46
52441;BME280;39611;46.062;8.950;2023-03-19T10:54:55;96703.59;;;12.69;46.28
52441;BME280;39611;46.062;8.950;2023-03-19T10:57:28;96696.63;;;12.73;48.77
52441;BME280;39611;46.062;8.950;2023-03-19T10:59:54;96702.47;;;12.75;48.07
52441;BME280;39611;46.062;8.950;2023-03-19T11:02:23;96693.50;;;12.71;46.84
52441;BME280;39611;46.062;8.950;2023-03-19T11:07:39;96696.31;;;12.80;48.85
52441;BME280;39611;46.062;8.950;2023-03-19T11:10:16;96695.97;;;12.86;47.95
52441;BME280;39611;46.062;8.950;2023-03-19T11:13:15;96701.16;;;12.97;46.69
52441;BME280;39611;46.062;8.950;2023-03-19T11:15:38;96699.53;;;13.01;47.02
52441;BME280;39611;46.062;8.950;2023-03-19T11:20:35;96699.81;;;12.99;45.27
52441;BME280;39611;46.062;8.950;2023-03-19T11:23:10;96691.25;;;13.07;45.87
52441;BME280;39611;46.062;8.950;2023-03-19T11:25:46;96684.34;;;13.06;46.14
52441;BME280;39611;46.062;8.950;2023-03-19T11:28:24;96676.66;;;13.05;45.03
52441;BME280;39611;46.062;8.950;2023-03-19T11:36:32;96678.25;;;13.06;44.87
52441;BME280;39611;46.062;8.950;2023-03-19T11:44:44;96665.00;;;13.25;46.48
52441;BME280;39611;46.062;8.950;2023-03-19T11:50:13;96653.03;;;13.27;48.36
52441;BME280;39611;46.062;8.950;2023-03-19T12:00:48;96646.66;;;13.28;46.29
52441;BME280;39611;46.062;8.950;2023-03-19T12:03:36;96647.66;;;13.32;47.10
52441;BME280;39611;46.062;8.950;2023-03-19T12:09:01;96651.56;;;13.16;48.91
52441;BME280;39611;46.062;8.950;2023-03-19T12:11:41;96646.88;;;13.08;48.15
52441;BME280;39611;46.062;8.950;2023-03-19T12:22:20;96632.53;;;13.09;47.19
52441;BME280;39611;46.062;8.950;2023-03-19T12:25:20;96625.34;;;13.09;48.07
52441;BME280;39611;46.062;8.950;2023-03-19T12:27:54;96622.19;;;13.07;47.54
52441;BME280;39611;46.062;8.950;2023-03-19T12:30:47;96624.03;;;13.07;47.61
52441;BME280;39611;46.062;8.950;2023-03-19T12:35:49;96619.19;;;13.14;48.76
52441;BME280;39611;46.062;8.950;2023-03-19T12:38:33;96612.78;;;13.15;48.72
52441;BME280;39611;46.062;8.950;2023-03-19T12:41:08;96613.41;;;13.07;48.06
52441;BME280;39611;46.062;8.950;2023-03-19T12:46:32;96615.03;;;13.08;47.39
52441;BME280;39611;46.062;8.950;2023-03-19T12:51:35;96606.47;;;13.11;48.05
52441;BME280;39611;46.062;8.950;2023-03-19T12:54:10;96609.41;;;13.09;48.74
52441;BME280;39611;46.062;8.950;2023-03-19T12:56:43;96605.97;;;13.09;48.87
52441;BME280;39611;46.062;8.950;2023-03-19T12:59:25;96605.38;;;13.12;49.64
52441;BME280;39611;46.062;8.950;2023-03-19T13:02:00;96601.69;;;13.13;51.21
52441;BME280;39611;46.062;8.950;2023-03-19T13:04:32;96598.13;;;13.18;50.26
52441;BME280;39611;46.062;8.950;2023-03-19T13:07:07;96598.59;;;13.25;49.12
52441;BME280;39611;46.062;8.950;2023-03-19T13:09:46;96599.13;;;13.27;52.05
52441;BME280;39611;46.062;8.950;2023-03-19T13:12:30;96597.78;;;13.24;49.46
52441;BME280;39611;46.062;8.950;2023-03-19T13:18:21;96595.72;;;13.21;49.10
52441;BME280;39611;46.062;8.950;2023-03-19T13:23:37;96589.50;;;13.31;50.35
52441;BME280;39611;46.062;8.950;2023-03-19T13:26:07;96580.19;;;13.33;50.99
52441;BME280;39611;46.062;8.950;2023-03-19T13:28:59;96585.56;;;13.28;49.46
52441;BME280;39611;46.062;8.950;2023-03-19T13:31:28;96582.84;;;13.33;50.28
52441;BME280;39611;46.062;8.950;2023-03-19T13:36:46;96587.50;;;13.42;52.16
52441;BME280;39611;46.062;8.950;2023-03-19T13:39:18;96590.94;;;13.42;50.39
52441;BME280;39611;46.062;8.950;2023-03-19T13:41:47;96587.78;;;13.40;49.79
52441;BME280;39611;46.062;8.950;2023-03-19T13:44:51;96588.56;;;13.41;50.44
52441;BME280;39611;46.062;8.950;2023-03-19T13:54:53;96570.19;;;13.44;50.03
52441;BME280;39611;46.062;8.950;2023-03-19T13:57:34;96575.59;;;13.39;49.70
52441;BME280;39611;46.062;8.950;2023-03-19T14:03:22;96572.41;;;13.37;52.50
52441;BME280;39611;46.062;8.950;2023-03-19T14:05:52;96564.38;;;13.42;52.23
52441;BME280;39611;46.062;8.950;2023-03-19T14:08:22;96569.19;;;13.40;52.17
52441;BME280;39611;46.062;8.950;2023-03-19T14:10:52;96577.63;;;13.23;49.83
52441;BME280;39611;46.062;8.950;2023-03-19T14:13:42;96572.31;;;13.23;50.14
52441;BME280;39611;46.062;8.950;2023-03-19T14:16:14;96566.47;;;13.26;49.63
52441;BME280;39611;46.062;8.950;2023-03-19T14:18:42;96576.28;;;13.26;51.78
52441;BME280;39611;46.062;8.950;2023-03-19T14:21:16;96570.22;;;13.20;50.90
52441;BME280;39611;46.062;8.950;2023-03-19T14:24:35;96570.00;;;13.17;51.51
52441;BME280;39611;46.062;8.950;2023-03-19T14:27:30;96571.16;;;13.10;49.97
52441;BME280;39611;46.062;8.950;2023-03-19T14:30:07;96570.78;;;13.17;51.64
52441;BME280;39611;46.062;8.950;2023-03-19T14:32:37;96564.97;;;13.15;51.52
52441;BME280;39611;46.062;8.950;2023-03-19T14:35:13;96561.66;;;13.04;51.27
52441;BME280;39611;46.062;8.950;2023-03-19T14:37:45;96562.56;;;13.00;51.18
52441;BME280;39611;46.062;8.950;2023-03-19T14:40:20;96562.09;;;12.93;51.57
52441;BME280;39611;46.062;8.950;2023-03-19T14:43:02;96560.28;;;12.88;50.75
52441;BME280;39611;46.062;8.950;2023-03-19T14:45:48;96553.06;;;12.94;52.04